.
WxDataArchive / Data Records for 2013-04-13
2013-04-12 April 2013 2013-04-14

Data Records for Saturday, 13 April 2013

Time	Temp	Chill	HIndex	Humid	Dewpt	 Wind 	HiWind	WindDir	Rain 	Barom 
-----	----	-----	------	-----	-----	------	------	-------	-----	----- 
00:00	38.9	38.9	38.9	83	34.2	2	5	270	0.00	29.853 
00:05	38.9	38.9	38.9	83	34.2	1	5	248	0.00	29.853 
00:10	38.9	38.9	38.9	83	34.2	2	5	248	0.00	29.853 
00:15	38.8	38.8	38.8	82	33.8	3	5	248	0.00	29.861 
00:20	38.8	38.8	38.8	82	33.8	2	6	248	0.00	29.861 
00:25	38.8	38.8	38.8	82	33.8	2	6	248	0.00	29.861 
00:30	38.8	38.8	38.8	82	33.8	2	6	248	0.00	29.867 
00:35	38.8	38.8	38.8	82	33.8	2	9	248	0.00	29.867 
00:40	38.8	38.8	38.8	82	33.8	3	7	248	0.00	29.867 
00:45	38.8	38.8	38.8	81	33.5	3	7	248	0.00	29.869 
00:50	38.9	38.9	38.9	80	33.3	2	5	248	0.00	29.869 
00:55	38.9	38.9	38.9	80	33.3	3	7	248	0.00	29.869 
01:00	38.9	38.9	38.9	79	33.0	3	6	248	0.00	29.872 
01:05	38.9	38.9	38.9	78	32.6	2	6	248	0.00	29.872 
01:10	38.9	38.9	38.9	77	32.3	2	6	248	0.00	29.872 
01:15	38.9	38.9	38.9	77	32.3	1	4	248	0.00	29.877 
01:20	38.8	38.8	38.8	75	31.6	1	4	248	0.00	29.877 
01:25	38.8	38.8	38.8	74	31.2	1	3	248	0.00	29.877 
01:30	38.8	38.8	38.8	74	31.2	0	2	248	0.00	29.880 
01:35	38.8	38.8	38.8	74	31.2	1	4	248	0.00	29.880 
01:40	38.8	38.8	38.8	73	30.9	1	4	248	0.00	29.880 
01:45	38.8	38.8	38.8	72	30.6	1	4	248	0.00	29.883 
01:50	38.8	38.8	38.8	72	30.6	1	3	248	0.00	29.883 
01:55	38.8	38.8	38.8	73	30.9	1	5	248	0.00	29.883 
02:00	38.8	38.8	38.8	73	30.9	1	4	270	0.00	29.885 
02:05	38.8	38.8	38.8	74	31.2	1	4	248	0.00	29.885 
02:10	38.8	38.8	38.8	74	31.2	1	3	248	0.00	29.885 
02:15	38.8	38.8	38.8	75	31.6	1	4	248	0.00	29.886 
02:20	38.8	38.8	38.8	76	31.9	1	3	248	0.00	29.886 
02:25	38.8	38.8	38.8	76	31.9	1	3	248	0.00	29.886 
02:30	38.6	38.6	38.6	76	31.7	1	6	248	0.00	29.887 
02:35	38.6	38.6	38.6	76	31.7	1	5	248	0.00	29.887 
02:40	38.6	38.6	38.6	76	31.7	1	4	248	0.00	29.887 
02:45	38.6	38.6	38.6	76	31.7	1	4	248	0.00	29.886 
02:50	38.6	38.6	38.6	76	31.7	2	4	248	0.00	29.886 
02:55	38.6	38.6	38.6	76	31.7	1	3	248	0.00	29.886 
03:00	38.6	38.6	38.6	76	31.7	1	4	248	0.00	29.883 
03:05	38.6	38.6	38.6	76	31.7	1	5	248	0.00	29.883 
03:10	38.6	38.6	38.6	76	31.7	1	5	248	0.00	29.883 
03:15	38.6	38.6	38.6	76	31.7	1	3	248	0.00	29.880 
03:20	38.6	38.6	38.6	76	31.7	1	5	248	0.00	29.880 
03:25	38.6	38.6	38.6	76	31.7	0	2	248	0.00	29.880 
03:30	38.6	38.6	38.6	76	31.7	1	3	248	0.00	29.877 
03:35	38.6	38.6	38.6	76	31.7	1	4	248	0.00	29.877 
03:40	38.6	38.6	38.6	76	31.7	1	4	248	0.00	29.877 
03:45	38.6	38.6	38.6	76	31.7	1	5	248	0.00	29.874 
03:50	38.6	38.6	38.6	76	31.7	1	4	248	0.00	29.874 
03:55	38.6	38.6	38.6	77	32.0	0	3	248	0.00	29.874 
04:00	38.6	38.6	38.6	77	32.0	1	3	248	0.00	29.870 
04:05	38.6	38.6	38.6	77	32.0	2	5	248	0.00	29.870 
04:10	38.8	38.8	38.8	78	32.5	1	3	248	0.00	29.870 
04:15	38.8	38.8	38.8	78	32.5	0	4	248	0.00	29.870 
04:20	38.8	38.8	38.8	80	33.2	1	3	248	0.00	29.870 
04:25	38.6	38.6	38.6	81	33.3	1	5	248	0.00	29.870 
04:30	38.5	38.5	38.5	82	33.5	1	6	248	0.00	29.870 
04:35	38.5	38.5	38.5	82	33.5	1	4	248	0.00	29.870 
04:40	38.3	38.3	38.3	83	33.6	1	4	248	0.00	29.870 
04:45	38.3	38.3	38.3	83	33.6	1	4	248	0.00	29.869 
04:50	38.3	38.3	38.3	84	33.9	1	4	248	0.00	29.869 
04:55	38.3	38.3	38.3	84	33.9	2	5	248	0.00	29.869 
05:00	38.3	38.3	38.3	84	33.9	2	6	248	0.00	29.874 
05:05	38.5	38.5	38.5	84	34.1	2	6	248	0.00	29.874 
05:10	38.5	38.5	38.5	85	34.4	1	5	248	0.00	29.874 
05:15	38.5	38.5	38.5	85	34.4	1	4	248	0.00	29.869 
05:20	38.5	38.5	38.5	86	34.7	1	5	248	0.00	29.869 
05:25	38.5	38.5	38.5	86	34.7	1	3	248	0.00	29.869 
05:30	38.5	38.5	38.5	87	35.0	1	3	248	0.00	29.866 
05:35	38.5	38.5	38.5	87	35.0	0	3	248	0.00	29.866 
05:40	38.3	38.3	38.3	88	35.1	0	2	248	0.00	29.866 
05:45	38.3	38.3	38.3	88	35.1	1	4	248	0.00	29.865 
05:50	38.3	38.3	38.3	88	35.1	1	3	248	0.00	29.865 
05:55	38.2	38.2	38.2	89	35.2	1	3	248	0.00	29.865 
06:00	38.2	38.2	38.2	89	35.2	0	3	248	0.00	29.864 
06:05	38.2	38.2	38.2	89	35.2	0	2	248	0.00	29.864 
06:10	38.2	38.2	38.2	89	35.2	1	3	248	0.00	29.864 
06:15	38.0	38.0	38.0	89	35.1	1	3	248	0.00	29.865 
06:20	38.0	38.0	38.0	89	35.1	1	3	248	0.00	29.865 
06:25	38.0	38.0	38.0	89	35.1	1	3	248	0.00	29.865 
06:30	37.9	37.9	37.9	89	35.0	1	2	248	0.00	29.870 
06:35	37.6	37.6	37.6	89	34.7	2	5	248	0.00	29.870 
06:40	37.2	37.2	37.2	89	34.3	2	3	248	0.00	29.870 
06:45	37.0	37.0	37.0	89	34.1	2	5	248	0.01	29.870 
06:50	36.9	36.9	36.9	90	34.2	1	3	248	0.00	29.870 
06:55	36.9	36.9	36.9	90	34.2	1	4	248	0.00	29.870 
07:00	36.9	36.9	36.9	90	34.2	1	4	248	0.00	29.872 
07:05	36.8	36.8	36.8	90	34.1	2	5	248	0.00	29.872 
07:10	36.6	36.6	36.6	90	33.9	1	4	248	0.00	29.872 
07:15	36.6	36.6	36.6	90	33.9	0	2	248	0.00	29.876 
07:20	36.6	36.6	36.6	90	33.9	1	3	248	0.00	29.876 
07:25	36.6	36.6	36.6	90	33.9	0	2	248	0.00	29.876 
07:30	36.6	36.6	36.6	90	33.9	1	5	248	0.00	29.881 
07:35	36.6	36.6	36.6	91	34.2	0	4	248	0.00	29.881 
07:40	36.6	36.6	36.6	90	33.9	2	4	248	0.00	29.881 
07:45	36.8	36.8	36.8	91	34.4	1	5	248	0.00	29.883 
07:50	36.8	36.8	36.8	91	34.4	1	4	248	0.00	29.883 
07:55	36.8	36.8	36.8	91	34.4	1	3	248	0.00	29.883 
08:00	36.9	36.9	36.9	91	34.5	1	3	248	0.00	29.885 
08:05	36.9	36.9	36.9	91	34.5	1	4	248	0.00	29.885 
08:10	37.0	37.0	37.0	91	34.6	1	4	248	0.00	29.885 
08:15	37.0	37.0	37.0	91	34.6	1	5	248	0.00	29.893 
08:20	37.2	37.2	37.2	91	34.8	1	3	248	0.00	29.893 
08:25	37.2	37.2	37.2	91	34.8	1	3	248	0.00	29.893 
08:30	37.2	37.2	37.2	91	34.8	2	4	248	0.00	29.895 
08:35	37.2	37.2	37.2	91	34.8	2	7	248	0.00	29.895 
08:40	37.3	37.3	37.3	90	34.6	1	4	248	0.00	29.895 
08:45	37.2	37.2	37.2	90	34.5	2	4	248	0.00	29.894 
08:50	37.3	37.3	37.3	90	34.6	2	5	248	0.00	29.894 
08:55	37.3	37.3	37.3	90	34.6	1	3	248	0.00	29.894 
09:00	37.3	37.3	37.3	90	34.6	2	5	248	0.00	29.890 
09:05	37.5	37.5	37.5	90	34.8	2	6	248	0.00	29.890 
09:10	37.6	37.6	37.6	90	34.9	2	10	248	0.00	29.890 
09:15	37.8	37.8	37.8	89	34.9	2	6	248	0.00	29.894 
09:20	37.9	37.9	37.9	89	35.0	2	7	248	0.00	29.894 
09:25	37.9	37.9	37.9	88	34.7	2	7	248	0.00	29.894 
09:30	37.9	37.9	37.9	88	34.7	2	6	248	0.00	29.888 
09:35	38.0	38.0	38.0	87	34.5	3	7	248	0.00	29.888 
09:40	38.0	38.0	38.0	87	34.5	3	6	248	0.00	29.888 
09:45	38.2	38.2	38.2	86	34.4	3	8	248	0.00	29.887 
09:50	38.3	38.3	38.3	86	34.5	2	9	248	0.00	29.887 
09:55	38.5	38.5	38.5	84	34.1	2	5	248	0.00	29.887 
10:00	38.6	38.6	38.6	83	33.9	3	6	248	0.00	29.888 
10:05	38.8	38.8	38.8	81	33.5	3	6	248	0.00	29.888 
10:10	39.2	39.2	39.2	79	33.2	3	6	248	0.00	29.888 
10:15	39.3	39.3	39.3	78	33.0	2	5	248	0.00	29.898 
10:20	39.2	39.2	39.2	77	32.6	3	7	248	0.00	29.898 
10:25	39.2	39.2	39.2	77	32.6	2	5	248	0.00	29.898 
10:30	39.3	39.3	39.3	77	32.7	2	7	248	0.00	29.897 
10:35	39.5	39.5	39.5	77	32.9	2	7	248	0.00	29.897 
10:40	39.5	39.5	39.5	77	32.9	3	9	248	0.00	29.897 
10:45	39.5	39.5	39.5	77	32.9	2	9	248	0.00	29.900 
10:50	39.3	39.3	39.3	77	32.7	3	6	248	0.00	29.900 
10:55	39.2	39.2	39.2	78	32.9	3	7	248	0.00	29.900 
11:00	38.9	38.9	38.9	81	33.6	3	9	248	0.00	29.909 
11:05	38.8	38.8	38.8	83	34.1	1	5	248	0.00	29.909 
11:10	38.8	38.8	38.8	84	34.4	2	9	248	0.00	29.909 
11:15	38.5	38.5	38.5	84	34.1	3	6	248	0.01	29.906 
11:20	38.5	38.5	38.5	84	34.1	3	7	270	0.00	29.906 
11:25	38.3	35.4	38.3	84	33.9	4	7	248	0.00	29.906 
11:30	38.3	38.3	38.3	84	33.9	3	6	248	0.00	29.915 
11:35	38.2	38.2	38.2	84	33.8	3	8	248	0.00	29.915 
11:40	38.2	35.2	38.2	84	33.8	4	10	248	0.00	29.915 
11:45	38.3	38.3	38.3	84	33.9	3	10	248	0.00	29.917 
11:50	38.5	38.5	38.5	84	34.1	3	7	248	0.00	29.917 
11:55	38.8	38.8	38.8	84	34.4	3	7	248	0.00	29.917 
12:00	38.9	38.9	38.9	84	34.5	3	10	248	0.00	29.917 
12:05	39.2	39.2	39.2	84	34.8	3	7	270	0.00	29.917 
12:10	39.1	39.1	39.1	83	34.4	2	5	270	0.00	29.917 
12:15	38.8	38.8	38.8	82	33.8	3	6	270	0.00	29.918 
12:20	38.8	35.9	38.8	81	33.5	4	11	248	0.00	29.918 
12:25	38.9	38.9	38.9	80	33.3	3	9	248	0.00	29.918 
12:30	39.1	39.1	39.1	78	32.8	3	7	248	0.00	29.918 
12:35	39.1	36.3	39.1	76	32.2	4	8	248	0.00	29.918 
12:40	39.2	39.2	39.2	76	32.3	3	7	248	0.00	29.918 
12:45	39.2	36.4	39.2	75	32.0	4	7	248	0.00	29.926 
12:50	39.2	36.4	39.2	76	32.3	4	12	248	0.00	29.926 
12:55	38.9	36.0	38.9	76	32.0	4	10	270	0.00	29.926 
13:00	38.2	38.2	38.2	78	32.0	3	6	270	0.00	29.934 
13:05	37.2	34.1	37.2	81	31.9	4	9	270	0.00	29.934 
13:10	37.0	37.0	37.0	83	32.3	3	6	270	0.00	29.934 
13:15	37.2	37.2	37.2	83	32.5	3	6	270	0.00	29.939 
13:20	37.3	34.2	37.3	81	32.0	4	11	248	0.00	29.939 
13:25	37.6	37.6	37.6	80	32.0	3	7	248	0.00	29.939 
13:30	37.6	33.7	37.6	78	31.4	5	10	270	0.00	29.943 
13:35	37.6	37.6	37.6	77	31.1	3	10	248	0.00	29.943 
13:40	37.8	34.8	37.8	77	31.2	4	9	248	0.00	29.943 
13:45	37.8	34.8	37.8	76	30.9	4	10	248	0.00	29.946 
13:50	37.8	33.9	37.8	74	30.3	5	10	270	0.00	29.946 
13:55	37.9	37.9	37.9	75	30.7	2	6	270	0.00	29.946 
14:00	38.3	38.3	38.3	75	31.1	3	7	248	0.00	29.944 
14:05	38.6	35.7	38.6	73	30.7	4	9	270	0.00	29.944 
14:10	39.2	39.2	39.2	73	31.3	3	9	248	0.00	29.944 
14:15	39.2	39.2	39.2	72	30.9	3	8	248	0.00	29.943 
14:20	39.2	39.2	39.2	71	30.6	2	6	270	0.00	29.943 
14:25	39.3	36.5	39.3	69	30.0	4	7	270	0.00	29.943 
14:30	39.6	36.0	39.6	68	29.9	5	10	270	0.00	29.945 
14:35	39.3	35.7	39.3	66	28.9	5	11	248	0.00	29.945 
14:40	39.2	35.5	39.2	67	29.2	5	13	248	0.00	29.945 
14:45	39.2	36.4	39.2	68	29.5	4	7	270	0.00	29.950 
14:50	39.3	39.3	39.3	68	29.6	3	9	248	0.00	29.950 
14:55	39.2	36.4	39.2	66	28.8	4	7	270	0.00	29.950 
15:00	38.9	38.9	38.9	67	28.9	3	5	270	0.00	29.959 
15:05	38.6	35.7	38.6	66	28.2	4	10	270	0.00	29.959 
15:10	38.6	35.7	38.6	67	28.6	4	6	270	0.00	29.959 
15:15	39.1	39.1	39.1	67	29.1	3	10	270	0.00	29.958 
15:20	40.1	37.4	40.1	64	28.9	4	9	270	0.00	29.958 
15:25	40.8	40.8	40.8	64	29.6	3	7	248	0.00	29.958 
15:30	41.3	38.8	41.3	61	28.9	4	7	248	0.00	29.953 
15:35	41.3	38.8	41.3	59	28.1	4	10	248	0.00	29.953 
15:40	41.2	38.7	41.2	59	28.0	4	13	292	0.00	29.953 
15:45	41.1	38.6	41.1	58	27.5	4	9	270	0.00	29.958 
15:50	41.3	38.0	41.3	57	27.2	5	11	270	0.00	29.958 
15:55	41.5	39.1	41.5	56	27.0	4	11	270	0.00	29.958 
16:00	41.3	38.0	41.3	54	25.9	5	11	270	0.00	29.961 
16:05	41.1	38.6	41.1	56	26.6	4	7	270	0.00	29.961 
16:10	40.8	37.4	40.8	57	26.8	5	10	270	0.00	29.961 
16:15	40.8	38.2	40.8	59	27.6	4	10	270	0.00	29.963 
16:20	41.6	39.2	41.6	59	28.3	4	7	248	0.00	29.963 
16:25	41.8	39.4	41.8	57	27.7	4	11	248	0.00	29.963 
16:30	41.5	39.1	41.5	57	27.4	4	10	248	0.00	29.961 
16:35	41.1	37.8	41.1	56	26.6	5	9	270	0.00	29.961 
16:40	41.3	41.3	41.3	58	27.7	3	6	248	0.00	29.961 
16:45	41.3	38.8	41.3	56	26.8	4	6	270	0.00	29.966 
16:50	41.2	41.2	41.2	56	26.7	3	11	248	0.00	29.966 
16:55	41.3	41.3	41.3	56	26.8	3	10	248	0.00	29.966 
17:00	41.8	39.4	41.8	58	28.1	4	9	248	0.00	29.965 
17:05	41.8	39.4	41.8	56	27.3	4	8	248	0.00	29.965 
17:10	42.1	39.7	42.1	55	27.1	4	9	248	0.00	29.965 
17:15	42.1	38.9	42.1	53	26.2	5	11	248	0.00	29.968 
17:20	42.1	42.1	42.1	55	27.1	3	5	292	0.00	29.968 
17:25	42.1	42.1	42.1	56	27.5	3	7	270	0.00	29.968 
17:30	41.8	39.4	41.8	54	26.4	4	10	270	0.00	29.975 
17:35	41.8	39.4	41.8	56	27.3	4	10	248	0.00	29.975 
17:40	42.1	39.7	42.1	55	27.1	4	7	270	0.00	29.975 
17:45	42.1	42.1	42.1	55	27.1	3	5	270	0.00	29.976 
17:50	41.9	39.5	41.9	55	26.9	4	11	248	0.00	29.976 
17:55	41.8	41.8	41.8	56	27.3	2	6	248	0.00	29.976 
18:00	41.8	41.8	41.8	56	27.3	3	5	270	0.00	29.977 
18:05	41.8	41.8	41.8	56	27.3	2	5	270	0.00	29.977 
18:10	41.9	41.9	41.9	56	27.4	2	6	248	0.00	29.977 
18:15	41.9	39.5	41.9	55	26.9	4	7	270	0.00	29.980 
18:20	41.9	41.9	41.9	56	27.4	2	5	270	0.00	29.980 
18:25	42.1	42.1	42.1	54	26.7	2	6	248	0.00	29.980 
18:30	41.9	41.9	41.9	55	26.9	2	4	248	0.00	29.982 
18:35	41.9	41.9	41.9	55	26.9	3	5	292	0.00	29.982 
18:40	41.9	41.9	41.9	56	27.4	2	6	270	0.00	29.982 
18:45	41.9	41.9	41.9	56	27.4	2	4	248	0.00	29.980 
18:50	42.1	42.1	42.1	56	27.5	3	6	270	0.00	29.980 
18:55	42.1	42.1	42.1	57	28.0	2	5	270	0.00	29.980 
19:00	42.1	42.1	42.1	56	27.5	2	6	248	0.00	29.979 
19:05	41.9	41.9	41.9	56	27.4	2	4	248	0.00	29.979 
19:10	41.9	41.9	41.9	57	27.8	2	5	248	0.00	29.979 
19:15	41.8	41.8	41.8	57	27.7	2	5	270	0.00	29.981 
19:20	41.8	41.8	41.8	57	27.7	2	5	270	0.00	29.981 
19:25	41.9	41.9	41.9	58	28.2	1	3	270	0.00	29.981 
19:30	41.9	41.9	41.9	58	28.2	1	4	270	0.00	29.981 
19:35	41.9	41.9	41.9	57	27.8	2	3	248	0.00	29.981 
19:40	41.9	41.9	41.9	57	27.8	2	7	248	0.00	29.981 
19:45	41.9	41.9	41.9	57	27.8	2	5	248	0.00	29.981 
19:50	41.8	41.8	41.8	57	27.7	1	4	248	0.00	29.981 
19:55	41.6	41.6	41.6	58	27.9	1	3	248	0.00	29.981 
20:00	41.6	41.6	41.6	59	28.3	1	4	248	0.00	29.981 
20:05	41.5	41.5	41.5	59	28.3	1	3	248	0.00	29.981 
20:10	41.3	41.3	41.3	59	28.1	0	2	248	0.00	29.981 
20:15	41.3	41.3	41.3	60	28.5	0	2	248	0.00	29.981 
20:20	41.2	41.2	41.2	60	28.4	1	3	248	0.00	29.981 
20:25	41.1	41.1	41.1	61	28.7	0	2	248	0.00	29.981 
20:30	40.9	40.9	40.9	61	28.5	0	2	248	0.00	29.979 
20:35	40.8	40.8	40.8	62	28.8	0	2	248	0.00	29.979 
20:40	40.6	40.6	40.6	62	28.6	0	1	248	0.00	29.979 
20:45	40.3	40.3	40.3	62	28.3	0	1	248	0.00	29.982 
20:50	40.2	40.2	40.2	63	28.6	0	1	248	0.00	29.982 
20:55	40.1	40.1	40.1	64	28.9	0	0	---	0.00	29.982 
21:00	39.9	39.9	39.9	64	28.7	0	2	248	0.00	29.989 
21:05	39.8	39.8	39.8	65	29.0	0	0	---	0.00	29.989 
21:10	39.6	39.6	39.6	65	28.8	0	0	---	0.00	29.989 
21:15	39.3	39.3	39.3	66	28.9	0	0	---	0.00	29.993 
21:20	39.1	39.1	39.1	66	28.7	0	0	---	0.00	29.993 
21:25	38.8	38.8	38.8	67	28.8	0	1	248	0.00	29.993 
21:30	38.6	38.6	38.6	68	29.0	0	0	---	0.00	29.995 
21:35	38.5	38.5	38.5	69	29.2	0	0	---	0.00	29.995 
21:40	38.5	38.5	38.5	70	29.6	0	0	---	0.00	29.995 
21:45	38.5	38.5	38.5	70	29.6	0	0	---	0.00	29.997 
21:50	38.5	38.5	38.5	71	29.9	0	0	---	0.00	29.997 
21:55	38.5	38.5	38.5	71	29.9	0	0	---	0.00	29.997 
22:00	38.6	38.6	38.6	72	30.4	0	0	---	0.00	30.001 
22:05	38.6	38.6	38.6	72	30.4	0	0	---	0.00	30.001 
22:10	38.6	38.6	38.6	72	30.4	0	0	---	0.00	30.001 
22:15	38.5	38.5	38.5	73	30.6	0	0	---	0.00	30.005 
22:20	38.5	38.5	38.5	73	30.6	0	1	248	0.00	30.005 
22:25	38.5	38.5	38.5	73	30.6	0	0	---	0.00	30.005 
22:30	38.5	38.5	38.5	73	30.6	0	1	248	0.00	30.007 
22:35	38.3	38.3	38.3	73	30.4	0	0	---	0.00	30.007 
22:40	38.3	38.3	38.3	74	30.8	0	0	---	0.00	30.007 
22:45	38.5	38.5	38.5	74	30.9	0	0	---	0.00	30.010 
22:50	38.5	38.5	38.5	74	30.9	0	0	---	0.00	30.010 
22:55	38.5	38.5	38.5	74	30.9	0	0	---	0.00	30.010 
23:00	38.5	38.5	38.5	74	30.9	0	0	---	0.00	30.006 
23:05	38.5	38.5	38.5	74	30.9	0	0	---	0.00	30.006 
23:10	38.3	38.3	38.3	75	31.1	0	0	---	0.00	30.006 
23:15	38.3	38.3	38.3	75	31.1	0	0	---	0.00	30.002 
23:20	38.3	38.3	38.3	75	31.1	0	0	---	0.00	30.002 
23:25	38.2	38.2	38.2	76	31.3	0	0	---	0.00	30.002 
23:30	38.0	38.0	38.0	76	31.1	0	0	---	0.00	30.004 
23:35	37.8	37.8	37.8	76	30.9	0	0	---	0.00	30.004 
23:40	37.6	37.6	37.6	76	30.7	0	0	---	0.00	30.004 
23:45	37.3	37.3	37.3	77	30.8	0	0	---	0.00	30.012 
23:50	37.0	37.0	37.0	77	30.5	0	0	---	0.00	30.012 
23:55	36.8	36.8	36.8	77	30.3	0	0	---	0.00	30.012 

CoCoRaHS
IN-AL-39
A2 Web Hosting
Creative Commons License
GoDaddy
search engine by freefind advanced

loaded 2018-11-16 01:20:47 • last modified 2010-11-18 10:43:29
Privacy PolicyDisclaimer
• wx.awcolley.com is powered by PmWiki v.2002016 •
• all content (unless otherwise noted) © 2018 A W Colley